Aérodrome :
LOGIN :

S'inscrire | Disclaimer

   EN    FR    IT 

 










Légende :    VFR   VFR Marginal   IFR   IFR Intensif   IFR Très Intensif
Visi : 
Plafond : 
>= 8 km
>= 3000ft
5 à 8 km
1000 à 3000 ft
1500m à 5 km
500 à 1000 ft
800 à 1500m
200 à 500 ft
< 800m
< 200 ft
Symboles :   Orages  Brouillard  Fortes neiges  Fortes précipitations  Vent > 20 kt
SIGMETs :   Divers  Orages  Givrage  Turbulence  Onde Orograph.  Cendres Volcan.







- Altitude de l'aérodrome : 794 ft


LKCV - Čáslav Air Base

DERNIER METAR :
  • 100400Z 28019KT CAVOK 05/M01 Q1007 NOSIG RMK BLACK

METARs EXPIRÉS :
  • 100300Z 28016KT CAVOK 04/00 Q1006 NOSIG RMK BLACK
  • 100200Z 26016KT 9999 SCT044 05/01 Q1006 NOSIG RMK BLACK

TAF TAF LKCV
Valide du 10 à 00h jusqu'au 11 à 00h UTC


092300Z 1000/1100 24012KT 9999 BKN040
TEMPO 1000/1004 7000 -RA BKN030
BECMG 1000/1002 30014KT
TEMPO 1002/1014 30018G28KT
TEMPO 1004/1016 7000 -SHRASN BKN020
TEMPO 1016/1018 4000 -SHSN BKN015 OVC020
Pas de NOTAMs connus pour ce terrain.



MET'MAP, la Météo Aéronautique d'un coup d'oeil ! - Copyright ORBIFLY Décembre 2007 - Disclaimer

ORBIFLY MET'MAP TEAM :

Programmation & Développement : Alexandra Zaïnal
Conception & Développement : Baudouin d'Aumeries
Co-Programmation & Développement : Marc-Olivier Méhu
Soutien technique & logistique : Manuel Goepfert

Contact : metmap@orbifly.com




SOURCES & CREDITS :

   NOAA